sensor_id;sensor_type;location;lat;lon;timestamp;P1;durP1;ratioP1;P2;durP2;ratioP2
12756;SDS011;31601;48.042;12.240;2022-09-28T00:01:06;0.50;;;0.40;;
12756;SDS011;31601;48.042;12.240;2022-09-28T00:03:34;0.20;;;0.20;;
12756;SDS011;31601;48.042;12.240;2022-09-28T00:06:02;0.40;;;0.30;;
12756;SDS011;31601;48.042;12.240;2022-09-28T00:08:29;1.60;;;0.30;;
12756;SDS011;31601;48.042;12.240;2022-09-28T00:10:56;0.60;;;0.40;;
12756;SDS011;31601;48.042;12.240;2022-09-28T00:13:23;0.50;;;0.30;;
12756;SDS011;31601;48.042;12.240;2022-09-28T00:15:57;1.30;;;0.20;;
12756;SDS011;31601;48.042;12.240;2022-09-28T00:18:24;0.40;;;0.40;;
12756;SDS011;31601;48.042;12.240;2022-09-28T00:20:59;0.30;;;0.20;;
12756;SDS011;31601;48.042;12.240;2022-09-28T00:23:26;1.17;;;0.50;;
12756;SDS011;31601;48.042;12.240;2022-09-28T00:25:53;0.63;;;0.30;;
12756;SDS011;31601;48.042;12.240;2022-09-28T00:28:19;0.47;;;0.40;;
12756;SDS011;31601;48.042;12.240;2022-09-28T00:30:45;1.07;;;0.37;;
12756;SDS011;31601;48.042;12.240;2022-09-28T00:33:12;0.20;;;0.20;;
12756;SDS011;31601;48.042;12.240;2022-09-28T00:35:38;0.77;;;0.27;;
12756;SDS011;31601;48.042;12.240;2022-09-28T00:38:06;0.30;;;0.30;;
12756;SDS011;31601;48.042;12.240;2022-09-28T00:40:33;0.57;;;0.30;;
12756;SDS011;31601;48.042;12.240;2022-09-28T00:43:15;0.50;;;0.33;;
12756;SDS011;31601;48.042;12.240;2022-09-28T00:45:42;0.70;;;0.40;;
12756;SDS011;31601;48.042;12.240;2022-09-28T00:48:09;1.40;;;0.40;;
12756;SDS011;31601;48.042;12.240;2022-09-28T00:50:36;0.67;;;0.40;;
12756;SDS011;31601;48.042;12.240;2022-09-28T00:53:05;1.03;;;0.60;;
12756;SDS011;31601;48.042;12.240;2022-09-28T00:55:39;1.27;;;0.60;;
12756;SDS011;31601;48.042;12.240;2022-09-28T00:58:11;1.27;;;0.40;;
12756;SDS011;31601;48.042;12.240;2022-09-28T01:00:41;0.60;;;0.40;;
12756;SDS011;31601;48.042;12.240;2022-09-28T01:03:08;1.00;;;0.40;;
12756;SDS011;31601;48.042;12.240;2022-09-28T01:05:35;1.00;;;0.50;;
12756;SDS011;31601;48.042;12.240;2022-09-28T01:08:04;1.57;;;0.50;;
12756;SDS011;31601;48.042;12.240;2022-09-28T01:10:34;3.33;;;0.50;;
12756;SDS011;31601;48.042;12.240;2022-09-28T01:13:01;0.70;;;0.50;;
12756;SDS011;31601;48.042;12.240;2022-09-28T01:15:27;0.77;;;0.40;;
12756;SDS011;31601;48.042;12.240;2022-09-28T01:17:58;0.50;;;0.50;;
12756;SDS011;31601;48.042;12.240;2022-09-28T01:20:32;0.53;;;0.40;;
12756;SDS011;31601;48.042;12.240;2022-09-28T01:23:19;0.50;;;0.47;;
12756;SDS011;31601;48.042;12.240;2022-09-28T01:28:39;1.13;;;0.50;;
12756;SDS011;31601;48.042;12.240;2022-09-28T01:31:09;1.77;;;0.40;;
12756;SDS011;31601;48.042;12.240;2022-09-28T01:33:37;0.30;;;0.30;;
12756;SDS011;31601;48.042;12.240;2022-09-28T01:36:09;1.73;;;0.30;;
12756;SDS011;31601;48.042;12.240;2022-09-28T01:38:39;1.60;;;0.40;;
12756;SDS011;31601;48.042;12.240;2022-09-28T01:41:12;0.90;;;0.60;;
12756;SDS011;31601;48.042;12.240;2022-09-28T01:43:42;1.77;;;0.47;;
12756;SDS011;31601;48.042;12.240;2022-09-28T01:46:13;0.93;;;0.47;;
12756;SDS011;31601;48.042;12.240;2022-09-28T01:48:44;1.90;;;0.50;;
12756;SDS011;31601;48.042;12.240;2022-09-28T01:51:15;1.03;;;0.50;;
12756;SDS011;31601;48.042;12.240;2022-09-28T01:53:45;0.40;;;0.40;;
12756;SDS011;31601;48.042;12.240;2022-09-28T01:56:18;0.87;;;0.60;;
12756;SDS011;31601;48.042;12.240;2022-09-28T01:58:52;1.33;;;0.50;;
12756;SDS011;31601;48.042;12.240;2022-09-28T02:01:23;1.23;;;0.50;;
12756;SDS011;31601;48.042;12.240;2022-09-28T02:03:54;1.37;;;0.60;;
12756;SDS011;31601;48.042;12.240;2022-09-28T02:06:29;0.40;;;0.30;;
12756;SDS011;31601;48.042;12.240;2022-09-28T02:09:01;2.17;;;0.53;;
12756;SDS011;31601;48.042;12.240;2022-09-28T02:11:35;0.87;;;0.50;;
12756;SDS011;31601;48.042;12.240;2022-09-28T02:14:04;0.40;;;0.33;;
12756;SDS011;31601;48.042;12.240;2022-09-28T02:16:34;0.43;;;0.30;;
12756;SDS011;31601;48.042;12.240;2022-09-28T02:19:04;0.40;;;0.40;;
12756;SDS011;31601;48.042;12.240;2022-09-28T02:21:36;0.40;;;0.40;;
12756;SDS011;31601;48.042;12.240;2022-09-28T02:24:08;2.27;;;0.33;;
12756;SDS011;31601;48.042;12.240;2022-09-28T02:26:42;0.60;;;0.40;;
12756;SDS011;31601;48.042;12.240;2022-09-28T02:29:11;2.53;;;0.40;;
12756;SDS011;31601;48.042;12.240;2022-09-28T02:31:38;1.13;;;0.40;;
12756;SDS011;31601;48.042;12.240;2022-09-28T02:34:04;2.03;;;0.50;;
12756;SDS011;31601;48.042;12.240;2022-09-28T02:36:31;1.90;;;0.60;;
12756;SDS011;31601;48.042;12.240;2022-09-28T02:38:59;1.17;;;0.50;;
12756;SDS011;31601;48.042;12.240;2022-09-28T02:41:30;0.40;;;0.40;;
12756;SDS011;31601;48.042;12.240;2022-09-28T02:44:09;1.83;;;0.73;;
12756;SDS011;31601;48.042;12.240;2022-09-28T02:46:44;0.60;;;0.60;;
12756;SDS011;31601;48.042;12.240;2022-09-28T02:49:22;1.27;;;0.50;;
12756;SDS011;31601;48.042;12.240;2022-09-28T02:52:00;1.53;;;0.60;;
12756;SDS011;31601;48.042;12.240;2022-09-28T02:54:44;3.03;;;0.50;;
12756;SDS011;31601;48.042;12.240;2022-09-28T02:57:27;0.70;;;0.50;;
12756;SDS011;31601;48.042;12.240;2022-09-28T03:00:05;0.83;;;0.40;;
12756;SDS011;31601;48.042;12.240;2022-09-28T03:02:35;0.50;;;0.40;;
12756;SDS011;31601;48.042;12.240;2022-09-28T03:05:19;0.97;;;0.40;;
12756;SDS011;31601;48.042;12.240;2022-09-28T03:07:53;0.67;;;0.57;;
12756;SDS011;31601;48.042;12.240;2022-09-28T03:10:25;0.40;;;0.40;;
12756;SDS011;31601;48.042;12.240;2022-09-28T03:12:55;0.63;;;0.30;;
12756;SDS011;31601;48.042;12.240;2022-09-28T03:15:25;0.30;;;0.30;;
12756;SDS011;31601;48.042;12.240;2022-09-28T03:17:53;0.70;;;0.40;;
12756;SDS011;31601;48.042;12.240;2022-09-28T03:20:20;0.83;;;0.30;;
12756;SDS011;31601;48.042;12.240;2022-09-28T03:22:46;1.37;;;0.40;;
12756;SDS011;31601;48.042;12.240;2022-09-28T03:25:12;1.70;;;0.30;;
12756;SDS011;31601;48.042;12.240;2022-09-28T03:27:40;0.40;;;0.40;;
12756;SDS011;31601;48.042;12.240;2022-09-28T03:30:07;0.40;;;0.40;;
12756;SDS011;31601;48.042;12.240;2022-09-28T03:32:36;0.40;;;0.40;;
12756;SDS011;31601;48.042;12.240;2022-09-28T03:35:03;0.30;;;0.30;;
12756;SDS011;31601;48.042;12.240;2022-09-28T03:37:31;0.60;;;0.40;;
12756;SDS011;31601;48.042;12.240;2022-09-28T03:39:57;0.40;;;0.40;;
12756;SDS011;31601;48.042;12.240;2022-09-28T03:42:24;0.60;;;0.43;;
12756;SDS011;31601;48.042;12.240;2022-09-28T03:44:50;0.50;;;0.50;;
12756;SDS011;31601;48.042;12.240;2022-09-28T03:47:17;0.70;;;0.67;;
12756;SDS011;31601;48.042;12.240;2022-09-28T03:49:45;1.97;;;1.00;;
12756;SDS011;31601;48.042;12.240;2022-09-28T03:52:12;2.17;;;0.90;;
12756;SDS011;31601;48.042;12.240;2022-09-28T03:54:39;1.20;;;0.90;;
12756;SDS011;31601;48.042;12.240;2022-09-28T03:57:06;2.77;;;1.00;;
12756;SDS011;31601;48.042;12.240;2022-09-28T03:59:32;1.33;;;0.90;;
12756;SDS011;31601;48.042;12.240;2022-09-28T04:02:01;1.43;;;1.00;;
12756;SDS011;31601;48.042;12.240;2022-09-28T04:04:28;1.07;;;0.80;;
12756;SDS011;31601;48.042;12.240;2022-09-28T04:06:56;1.10;;;0.97;;
12756;SDS011;31601;48.042;12.240;2022-09-28T04:09:23;2.13;;;0.63;;
12756;SDS011;31601;48.042;12.240;2022-09-28T04:11:49;1.10;;;1.00;;
12756;SDS011;31601;48.042;12.240;2022-09-28T04:14:16;4.73;;;1.70;;
12756;SDS011;31601;48.042;12.240;2022-09-28T04:16:42;2.73;;;1.00;;
12756;SDS011;31601;48.042;12.240;2022-09-28T04:19:09;1.77;;;0.73;;
12756;SDS011;31601;48.042;12.240;2022-09-28T04:21:35;0.50;;;0.50;;
12756;SDS011;31601;48.042;12.240;2022-09-28T04:24:04;1.10;;;0.60;;
12756;SDS011;31601;48.042;12.240;2022-09-28T04:26:30;0.70;;;0.60;;
12756;SDS011;31601;48.042;12.240;2022-09-28T04:28:57;0.87;;;0.50;;
12756;SDS011;31601;48.042;12.240;2022-09-28T04:31:41;0.63;;;0.40;;
12756;SDS011;31601;48.042;12.240;2022-09-28T04:34:10;2.47;;;0.80;;
12756;SDS011;31601;48.042;12.240;2022-09-28T04:36:38;0.60;;;0.57;;
12756;SDS011;31601;48.042;12.240;2022-09-28T04:39:06;0.60;;;0.50;;
12756;SDS011;31601;48.042;12.240;2022-09-28T04:41:33;1.57;;;0.70;;
12756;SDS011;31601;48.042;12.240;2022-09-28T04:43:59;1.10;;;0.70;;
12756;SDS011;31601;48.042;12.240;2022-09-28T04:46:26;2.23;;;1.10;;
12756;SDS011;31601;48.042;12.240;2022-09-28T04:48:52;5.43;;;2.20;;
12756;SDS011;31601;48.042;12.240;2022-09-28T04:51:19;1.87;;;1.60;;
12756;SDS011;31601;48.042;12.240;2022-09-28T04:53:45;2.10;;;1.50;;
12756;SDS011;31601;48.042;12.240;2022-09-28T04:56:14;3.03;;;1.73;;
12756;SDS011;31601;48.042;12.240;2022-09-28T04:58:41;1.93;;;1.57;;
12756;SDS011;31601;48.042;12.240;2022-09-28T05:01:09;1.70;;;1.50;;
12756;SDS011;31601;48.042;12.240;2022-09-28T05:03:37;1.60;;;1.40;;
12756;SDS011;31601;48.042;12.240;2022-09-28T05:06:03;1.60;;;1.30;;
12756;SDS011;31601;48.042;12.240;2022-09-28T05:08:31;1.50;;;1.30;;
12756;SDS011;31601;48.042;12.240;2022-09-28T05:10:59;2.60;;;0.80;;
12756;SDS011;31601;48.042;12.240;2022-09-28T05:13:28;2.43;;;1.93;;
12756;SDS011;31601;48.042;12.240;2022-09-28T05:15:55;2.67;;;1.67;;
12756;SDS011;31601;48.042;12.240;2022-09-28T05:18:23;5.13;;;1.00;;
12756;SDS011;31601;48.042;12.240;2022-09-28T05:20:50;2.07;;;1.00;;
12756;SDS011;31601;48.042;12.240;2022-09-28T05:23:17;3.37;;;1.10;;
12756;SDS011;31601;48.042;12.240;2022-09-28T05:25:43;2.93;;;1.33;;
12756;SDS011;31601;48.042;12.240;2022-09-28T05:28:10;1.50;;;1.30;;
12756;SDS011;31601;48.042;12.240;2022-09-28T05:30:38;1.57;;;1.20;;
12756;SDS011;31601;48.042;12.240;2022-09-28T05:33:05;2.80;;;2.40;;
12756;SDS011;31601;48.042;12.240;2022-09-28T05:35:33;6.90;;;2.43;;
12756;SDS011;31601;48.042;12.240;2022-09-28T05:38:01;2.67;;;2.43;;
12756;SDS011;31601;48.042;12.240;2022-09-28T05:40:28;2.60;;;2.40;;
12756;SDS011;31601;48.042;12.240;2022-09-28T05:42:57;3.33;;;1.70;;
12756;SDS011;31601;48.042;12.240;2022-09-28T05:45:24;2.30;;;1.63;;
12756;SDS011;31601;48.042;12.240;2022-09-28T05:47:52;3.47;;;1.40;;
12756;SDS011;31601;48.042;12.240;2022-09-28T05:50:18;1.70;;;1.10;;
12756;SDS011;31601;48.042;12.240;2022-09-28T05:52:45;1.20;;;1.00;;
12756;SDS011;31601;48.042;12.240;2022-09-28T05:55:11;1.30;;;0.97;;
12756;SDS011;31601;48.042;12.240;2022-09-28T05:57:38;4.40;;;2.30;;
12756;SDS011;31601;48.042;12.240;2022-09-28T06:00:04;1.40;;;1.17;;
12756;SDS011;31601;48.042;12.240;2022-09-28T06:02:33;1.40;;;1.30;;
12756;SDS011;31601;48.042;12.240;2022-09-28T06:05:01;1.70;;;1.20;;
12756;SDS011;31601;48.042;12.240;2022-09-28T06:07:27;1.87;;;1.33;;
12756;SDS011;31601;48.042;12.240;2022-09-28T06:09:53;1.90;;;1.13;;
12756;SDS011;31601;48.042;12.240;2022-09-28T06:12:20;3.93;;;1.90;;
12756;SDS011;31601;48.042;12.240;2022-09-28T06:14:46;5.73;;;1.50;;
12756;SDS011;31601;48.042;12.240;2022-09-28T06:17:13;3.30;;;1.27;;
12756;SDS011;31601;48.042;12.240;2022-09-28T06:19:39;3.77;;;2.03;;
12756;SDS011;31601;48.042;12.240;2022-09-28T06:22:07;3.90;;;2.60;;
12756;SDS011;31601;48.042;12.240;2022-09-28T06:24:34;2.70;;;2.03;;
12756;SDS011;31601;48.042;12.240;2022-09-28T06:27:00;5.77;;;1.47;;
12756;SDS011;31601;48.042;12.240;2022-09-28T06:29:26;3.90;;;1.80;;
12756;SDS011;31601;48.042;12.240;2022-09-28T06:31:53;5.13;;;1.67;;
12756;SDS011;31601;48.042;12.240;2022-09-28T06:34:20;2.57;;;1.70;;
12756;SDS011;31601;48.042;12.240;2022-09-28T06:36:48;2.23;;;1.70;;
12756;SDS011;31601;48.042;12.240;2022-09-28T06:39:16;2.67;;;2.10;;
12756;SDS011;31601;48.042;12.240;2022-09-28T06:41:43;3.30;;;1.97;;
12756;SDS011;31601;48.042;12.240;2022-09-28T06:44:09;5.97;;;2.43;;
12756;SDS011;31601;48.042;12.240;2022-09-28T06:46:36;4.63;;;2.90;;
12756;SDS011;31601;48.042;12.240;2022-09-28T06:49:03;5.10;;;4.20;;
12756;SDS011;31601;48.042;12.240;2022-09-28T06:51:30;7.90;;;4.70;;
12756;SDS011;31601;48.042;12.240;2022-09-28T06:53:56;2.33;;;1.87;;
12756;SDS011;31601;48.042;12.240;2022-09-28T06:56:24;4.23;;;2.83;;
12756;SDS011;31601;48.042;12.240;2022-09-28T06:58:51;3.80;;;2.67;;
12756;SDS011;31601;48.042;12.240;2022-09-28T07:01:18;2.83;;;2.10;;
12756;SDS011;31601;48.042;12.240;2022-09-28T07:03:44;2.90;;;1.83;;
12756;SDS011;31601;48.042;12.240;2022-09-28T07:06:11;3.20;;;2.00;;
12756;SDS011;31601;48.042;12.240;2022-09-28T07:08:38;2.53;;;1.27;;
12756;SDS011;31601;48.042;12.240;2022-09-28T07:11:05;2.70;;;1.60;;
12756;SDS011;31601;48.042;12.240;2022-09-28T07:13:33;3.10;;;1.40;;
12756;SDS011;31601;48.042;12.240;2022-09-28T07:16:01;3.27;;;1.67;;
12756;SDS011;31601;48.042;12.240;2022-09-28T07:18:28;3.23;;;1.50;;
12756;SDS011;31601;48.042;12.240;2022-09-28T07:20:55;2.03;;;1.50;;
12756;SDS011;31601;48.042;12.240;2022-09-28T07:23:22;2.60;;;1.87;;
12756;SDS011;31601;48.042;12.240;2022-09-28T07:25:51;4.50;;;1.93;;
12756;SDS011;31601;48.042;12.240;2022-09-28T07:28:18;5.53;;;1.80;;
12756;SDS011;31601;48.042;12.240;2022-09-28T07:30:46;3.50;;;1.60;;
12756;SDS011;31601;48.042;12.240;2022-09-28T07:33:13;2.97;;;1.90;;
12756;SDS011;31601;48.042;12.240;2022-09-28T07:35:48;3.50;;;2.20;;
12756;SDS011;31601;48.042;12.240;2022-09-28T07:38:15;1.67;;;1.40;;
12756;SDS011;31601;48.042;12.240;2022-09-28T07:40:41;2.10;;;1.30;;
12756;SDS011;31601;48.042;12.240;2022-09-28T07:43:25;2.33;;;2.00;;
12756;SDS011;31601;48.042;12.240;2022-09-28T07:45:53;8.83;;;7.93;;
12756;SDS011;31601;48.042;12.240;2022-09-28T07:48:20;8.43;;;5.53;;
12756;SDS011;31601;48.042;12.240;2022-09-28T07:50:47;3.93;;;2.47;;
12756;SDS011;31601;48.042;12.240;2022-09-28T07:53:15;3.43;;;2.30;;
12756;SDS011;31601;48.042;12.240;2022-09-28T07:55:42;2.93;;;2.20;;
12756;SDS011;31601;48.042;12.240;2022-09-28T07:58:11;5.20;;;3.47;;
12756;SDS011;31601;48.042;12.240;2022-09-28T08:00:38;5.23;;;3.10;;
12756;SDS011;31601;48.042;12.240;2022-09-28T08:03:06;2.00;;;1.73;;
12756;SDS011;31601;48.042;12.240;2022-09-28T08:05:32;1.80;;;1.60;;
12756;SDS011;31601;48.042;12.240;2022-09-28T08:08:00;2.30;;;1.90;;
12756;SDS011;31601;48.042;12.240;2022-09-28T08:10:27;2.57;;;2.37;;
12756;SDS011;31601;48.042;12.240;2022-09-28T08:12:53;2.47;;;1.70;;
12756;SDS011;31601;48.042;12.240;2022-09-28T08:15:20;3.17;;;2.13;;
12756;SDS011;31601;48.042;12.240;2022-09-28T08:17:47;3.40;;;2.60;;
12756;SDS011;31601;48.042;12.240;2022-09-28T08:20:16;2.50;;;2.20;;
12756;SDS011;31601;48.042;12.240;2022-09-28T08:23:03;3.27;;;2.30;;
12756;SDS011;31601;48.042;12.240;2022-09-28T08:25:31;2.40;;;1.87;;
12756;SDS011;31601;48.042;12.240;2022-09-28T08:27:58;2.90;;;2.10;;
12756;SDS011;31601;48.042;12.240;2022-09-28T08:30:25;2.23;;;2.00;;
12756;SDS011;31601;48.042;12.240;2022-09-28T08:32:51;2.40;;;2.20;;
12756;SDS011;31601;48.042;12.240;2022-09-28T08:35:19;3.10;;;1.90;;
12756;SDS011;31601;48.042;12.240;2022-09-28T08:37:48;2.63;;;1.80;;
12756;SDS011;31601;48.042;12.240;2022-09-28T08:40:17;3.50;;;1.97;;
12756;SDS011;31601;48.042;12.240;2022-09-28T08:42:46;1.90;;;1.70;;
12756;SDS011;31601;48.042;12.240;2022-09-28T08:45:17;2.83;;;2.20;;
12756;SDS011;31601;48.042;12.240;2022-09-28T08:47:48;2.33;;;1.90;;
12756;SDS011;31601;48.042;12.240;2022-09-28T08:50:51;2.97;;;2.17;;
12756;SDS011;31601;48.042;12.240;2022-09-28T08:53:28;12.40;;;10.07;;
12756;SDS011;31601;48.042;12.240;2022-09-28T08:56:00;15.37;;;12.93;;
12756;SDS011;31601;48.042;12.240;2022-09-28T08:58:30;4.57;;;3.33;;
12756;SDS011;31601;48.042;12.240;2022-09-28T09:00:59;6.17;;;5.00;;
12756;SDS011;31601;48.042;12.240;2022-09-28T09:03:28;5.80;;;4.40;;
12756;SDS011;31601;48.042;12.240;2022-09-28T09:05:59;5.23;;;3.90;;
12756;SDS011;31601;48.042;12.240;2022-09-28T09:08:35;4.10;;;3.23;;
12756;SDS011;31601;48.042;12.240;2022-09-28T09:11:13;4.67;;;3.50;;
12756;SDS011;31601;48.042;12.240;2022-09-28T09:14:06;7.10;;;5.53;;
12756;SDS011;31601;48.042;12.240;2022-09-28T09:16:48;3.60;;;3.30;;
12756;SDS011;31601;48.042;12.240;2022-09-28T09:19:25;2.70;;;2.43;;
12756;SDS011;31601;48.042;12.240;2022-09-28T09:22:03;2.30;;;2.10;;
12756;SDS011;31601;48.042;12.240;2022-09-28T09:24:41;4.33;;;2.80;;
12756;SDS011;31601;48.042;12.240;2022-09-28T09:27:17;2.53;;;1.70;;
12756;SDS011;31601;48.042;12.240;2022-09-28T09:30:14;3.70;;;1.70;;
12756;SDS011;31601;48.042;12.240;2022-09-28T09:32:55;2.20;;;1.73;;
12756;SDS011;31601;48.042;12.240;2022-09-28T09:35:43;5.00;;;3.20;;
12756;SDS011;31601;48.042;12.240;2022-09-28T09:38:23;3.20;;;2.40;;
12756;SDS011;31601;48.042;12.240;2022-09-28T09:41:09;2.30;;;2.10;;
12756;SDS011;31601;48.042;12.240;2022-09-28T09:43:56;2.17;;;1.70;;
12756;SDS011;31601;48.042;12.240;2022-09-28T09:46:36;3.17;;;1.87;;
12756;SDS011;31601;48.042;12.240;2022-09-28T09:49:09;2.40;;;1.80;;
12756;SDS011;31601;48.042;12.240;2022-09-28T09:51:42;2.53;;;1.50;;
12756;SDS011;31601;48.042;12.240;2022-09-28T09:54:17;2.33;;;1.60;;
12756;SDS011;31601;48.042;12.240;2022-09-28T09:56:49;3.07;;;1.73;;
12756;SDS011;31601;48.042;12.240;2022-09-28T09:59:21;4.07;;;1.80;;
12756;SDS011;31601;48.042;12.240;2022-09-28T10:01:51;2.27;;;1.90;;
12756;SDS011;31601;48.042;12.240;2022-09-28T10:04:21;2.33;;;1.83;;
12756;SDS011;31601;48.042;12.240;2022-09-28T10:06:51;2.73;;;2.40;;
12756;SDS011;31601;48.042;12.240;2022-09-28T10:09:25;1.57;;;1.47;;
12756;SDS011;31601;48.042;12.240;2022-09-28T10:11:55;1.90;;;1.37;;
12756;SDS011;31601;48.042;12.240;2022-09-28T10:14:23;1.60;;;1.50;;
12756;SDS011;31601;48.042;12.240;2022-09-28T10:16:51;1.70;;;1.30;;
12756;SDS011;31601;48.042;12.240;2022-09-28T10:19:20;1.70;;;1.40;;
12756;SDS011;31601;48.042;12.240;2022-09-28T10:21:54;3.70;;;1.80;;
12756;SDS011;31601;48.042;12.240;2022-09-28T10:24:25;2.40;;;1.50;;
12756;SDS011;31601;48.042;12.240;2022-09-28T10:26:55;1.93;;;1.03;;
12756;SDS011;31601;48.042;12.240;2022-09-28T10:29:28;2.60;;;1.30;;
12756;SDS011;31601;48.042;12.240;2022-09-28T10:32:08;1.87;;;1.50;;
12756;SDS011;31601;48.042;12.240;2022-09-28T10:34:43;1.83;;;1.30;;
12756;SDS011;31601;48.042;12.240;2022-09-28T10:37:10;2.40;;;1.67;;
12756;SDS011;31601;48.042;12.240;2022-09-28T10:39:39;2.20;;;1.03;;
12756;SDS011;31601;48.042;12.240;2022-09-28T10:42:12;2.80;;;0.80;;
12756;SDS011;31601;48.042;12.240;2022-09-28T10:44:48;1.10;;;0.80;;
12756;SDS011;31601;48.042;12.240;2022-09-28T10:47:18;1.23;;;0.70;;
12756;SDS011;31601;48.042;12.240;2022-09-28T10:49:47;1.70;;;1.00;;
12756;SDS011;31601;48.042;12.240;2022-09-28T10:52:31;0.50;;;0.50;;
12756;SDS011;31601;48.042;12.240;2022-09-28T10:55:02;1.27;;;1.10;;
12756;SDS011;31601;48.042;12.240;2022-09-28T10:57:47;0.90;;;0.73;;
12756;SDS011;31601;48.042;12.240;2022-09-28T11:00:28;0.90;;;0.40;;
12756;SDS011;31601;48.042;12.240;2022-09-28T11:02:58;0.60;;;0.53;;
12756;SDS011;31601;48.042;12.240;2022-09-28T11:05:25;1.27;;;0.60;;
12756;SDS011;31601;48.042;12.240;2022-09-28T11:07:53;0.70;;;0.50;;
12756;SDS011;31601;48.042;12.240;2022-09-28T11:10:23;0.40;;;0.40;;
12756;SDS011;31601;48.042;12.240;2022-09-28T11:12:52;1.53;;;0.40;;
12756;SDS011;31601;48.042;12.240;2022-09-28T11:15:20;0.70;;;0.53;;
12756;SDS011;31601;48.042;12.240;2022-09-28T11:17:50;1.30;;;0.70;;
12756;SDS011;31601;48.042;12.240;2022-09-28T11:20:31;0.60;;;0.50;;
12756;SDS011;31601;48.042;12.240;2022-09-28T11:23:00;1.13;;;0.50;;
12756;SDS011;31601;48.042;12.240;2022-09-28T11:25:44;1.00;;;0.50;;
12756;SDS011;31601;48.042;12.240;2022-09-28T11:28:22;0.50;;;0.40;;
12756;SDS011;31601;48.042;12.240;2022-09-28T11:30:55;0.80;;;0.50;;
12756;SDS011;31601;48.042;12.240;2022-09-28T11:33:23;0.73;;;0.57;;
12756;SDS011;31601;48.042;12.240;2022-09-28T11:35:55;0.93;;;0.40;;
12756;SDS011;31601;48.042;12.240;2022-09-28T11:38:30;3.23;;;0.63;;
12756;SDS011;31601;48.042;12.240;2022-09-28T11:44:09;1.07;;;0.50;;
12756;SDS011;31601;48.042;12.240;2022-09-28T11:46:50;0.40;;;0.30;;
12756;SDS011;31601;48.042;12.240;2022-09-28T11:49:27;0.60;;;0.50;;
12756;SDS011;31601;48.042;12.240;2022-09-28T11:52:00;0.50;;;0.50;;
12756;SDS011;31601;48.042;12.240;2022-09-28T11:54:31;1.20;;;0.40;;
12756;SDS011;31601;48.042;12.240;2022-09-28T11:57:10;1.73;;;0.60;;
12756;SDS011;31601;48.042;12.240;2022-09-28T11:59:41;1.17;;;0.50;;
12756;SDS011;31601;48.042;12.240;2022-09-28T12:02:18;0.93;;;0.50;;
12756;SDS011;31601;48.042;12.240;2022-09-28T12:04:51;0.57;;;0.37;;
12756;SDS011;31601;48.042;12.240;2022-09-28T12:07:22;0.37;;;0.30;;
12756;SDS011;31601;48.042;12.240;2022-09-28T12:09:52;0.63;;;0.30;;
12756;SDS011;31601;48.042;12.240;2022-09-28T12:12:24;0.30;;;0.30;;
12756;SDS011;31601;48.042;12.240;2022-09-28T12:14:57;1.30;;;0.40;;
12756;SDS011;31601;48.042;12.240;2022-09-28T12:17:29;0.77;;;0.40;;
12756;SDS011;31601;48.042;12.240;2022-09-28T12:20:00;1.40;;;0.60;;
12756;SDS011;31601;48.042;12.240;2022-09-28T12:22:35;0.93;;;0.50;;
12756;SDS011;31601;48.042;12.240;2022-09-28T12:25:08;0.73;;;0.50;;
12756;SDS011;31601;48.042;12.240;2022-09-28T12:27:42;2.93;;;0.70;;
12756;SDS011;31601;48.042;12.240;2022-09-28T12:30:14;1.10;;;0.70;;
12756;SDS011;31601;48.042;12.240;2022-09-28T12:32:45;2.13;;;0.87;;
12756;SDS011;31601;48.042;12.240;2022-09-28T12:35:18;1.23;;;1.00;;
12756;SDS011;31601;48.042;12.240;2022-09-28T12:38:15;1.37;;;0.70;;
12756;SDS011;31601;48.042;12.240;2022-09-28T12:40:55;2.03;;;0.90;;
12756;SDS011;31601;48.042;12.240;2022-09-28T12:43:39;0.80;;;0.70;;
12756;SDS011;31601;48.042;12.240;2022-09-28T12:46:30;1.90;;;0.90;;
12756;SDS011;31601;48.042;12.240;2022-09-28T12:49:14;0.93;;;0.80;;
12756;SDS011;31601;48.042;12.240;2022-09-28T12:51:47;1.60;;;1.00;;
12756;SDS011;31601;48.042;12.240;2022-09-28T12:54:30;1.83;;;1.30;;
12756;SDS011;31601;48.042;12.240;2022-09-28T12:57:13;1.53;;;0.90;;
12756;SDS011;31601;48.042;12.240;2022-09-28T12:59:59;1.50;;;1.13;;
12756;SDS011;31601;48.042;12.240;2022-09-28T13:02:36;1.60;;;1.00;;
12756;SDS011;31601;48.042;12.240;2022-09-28T13:05:22;1.63;;;0.90;;
12756;SDS011;31601;48.042;12.240;2022-09-28T13:08:02;2.27;;;1.20;;
12756;SDS011;31601;48.042;12.240;2022-09-28T13:10:38;2.63;;;1.30;;
12756;SDS011;31601;48.042;12.240;2022-09-28T13:13:12;2.10;;;1.23;;
12756;SDS011;31601;48.042;12.240;2022-09-28T13:16:00;2.50;;;1.03;;
12756;SDS011;31601;48.042;12.240;2022-09-28T13:18:34;1.60;;;1.27;;
12756;SDS011;31601;48.042;12.240;2022-09-28T13:21:09;2.77;;;1.50;;
12756;SDS011;31601;48.042;12.240;2022-09-28T13:23:45;3.00;;;1.30;;
12756;SDS011;31601;48.042;12.240;2022-09-28T13:26:17;1.30;;;1.20;;
12756;SDS011;31601;48.042;12.240;2022-09-28T13:28:48;1.83;;;1.03;;
12756;SDS011;31601;48.042;12.240;2022-09-28T13:31:21;1.80;;;1.57;;
12756;SDS011;31601;48.042;12.240;2022-09-28T13:33:54;4.83;;;1.80;;
12756;SDS011;31601;48.042;12.240;2022-09-28T13:36:36;2.83;;;1.80;;
12756;SDS011;31601;48.042;12.240;2022-09-28T13:42:02;1.57;;;1.33;;
12756;SDS011;31601;48.042;12.240;2022-09-28T13:44:36;1.77;;;1.20;;
12756;SDS011;31601;48.042;12.240;2022-09-28T13:47:30;2.73;;;1.23;;
12756;SDS011;31601;48.042;12.240;2022-09-28T13:50:16;1.80;;;1.20;;
12756;SDS011;31601;48.042;12.240;2022-09-28T13:52:55;2.53;;;1.43;;
12756;SDS011;31601;48.042;12.240;2022-09-28T13:55:32;2.50;;;1.37;;
12756;SDS011;31601;48.042;12.240;2022-09-28T13:58:05;3.07;;;1.40;;
12756;SDS011;31601;48.042;12.240;2022-09-28T14:00:42;1.27;;;1.13;;
12756;SDS011;31601;48.042;12.240;2022-09-28T14:03:24;1.13;;;1.03;;
12756;SDS011;31601;48.042;12.240;2022-09-28T14:06:04;2.50;;;1.23;;
12756;SDS011;31601;48.042;12.240;2022-09-28T14:08:38;2.00;;;1.33;;
12756;SDS011;31601;48.042;12.240;2022-09-28T14:11:22;1.83;;;1.50;;
12756;SDS011;31601;48.042;12.240;2022-09-28T14:14:05;1.60;;;1.50;;
12756;SDS011;31601;48.042;12.240;2022-09-28T14:16:50;2.50;;;1.20;;
12756;SDS011;31601;48.042;12.240;2022-09-28T14:19:31;2.50;;;1.50;;
12756;SDS011;31601;48.042;12.240;2022-09-28T14:22:03;2.70;;;1.20;;
12756;SDS011;31601;48.042;12.240;2022-09-28T14:24:42;2.80;;;2.20;;
12756;SDS011;31601;48.042;12.240;2022-09-28T14:30:25;4.90;;;1.87;;
12756;SDS011;31601;48.042;12.240;2022-09-28T14:33:00;2.20;;;1.73;;
12756;SDS011;31601;48.042;12.240;2022-09-28T14:35:44;7.23;;;4.57;;
12756;SDS011;31601;48.042;12.240;2022-09-28T14:38:13;2.27;;;1.70;;
12756;SDS011;31601;48.042;12.240;2022-09-28T14:41:00;2.87;;;2.10;;
12756;SDS011;31601;48.042;12.240;2022-09-28T14:43:35;4.83;;;2.10;;
12756;SDS011;31601;48.042;12.240;2022-09-28T14:46:29;3.23;;;1.67;;
12756;SDS011;31601;48.042;12.240;2022-09-28T14:49:00;2.70;;;1.40;;
12756;SDS011;31601;48.042;12.240;2022-09-28T14:51:53;1.70;;;1.27;;
12756;SDS011;31601;48.042;12.240;2022-09-28T14:54:27;4.53;;;2.20;;
12756;SDS011;31601;48.042;12.240;2022-09-28T14:57:09;2.17;;;1.63;;
12756;SDS011;31601;48.042;12.240;2022-09-28T14:59:43;2.53;;;1.50;;
12756;SDS011;31601;48.042;12.240;2022-09-28T15:02:21;2.83;;;1.80;;
12756;SDS011;31601;48.042;12.240;2022-09-28T15:04:51;3.13;;;1.47;;
12756;SDS011;31601;48.042;12.240;2022-09-28T15:07:22;3.07;;;1.60;;
12756;SDS011;31601;48.042;12.240;2022-09-28T15:09:51;5.93;;;1.77;;
12756;SDS011;31601;48.042;12.240;2022-09-28T15:12:19;5.10;;;1.80;;